KERI/ERI METAR and TAF weather

Enter ICAO airport designator
Station Type Date Time Source
KERI METAR 2020/03/29 19:51 UTC NOAA

KERI 291951Z 26019G33KT 10SM SCT070 BKN090 BKN110 12/05 A2965 RMK AO2 PK WND 25033/1946 RAB22E51 PRESRR SLP042 P0000 T01220050


Station Type Date Time Source
KERI Decoded METAR 2020/03/29 19:51 UTC NOAA

ERIE INTERNATIONAL AIRPORT, PA, United States (KERI) 42-05N 080-11W 222M
Mar 29, 2020 - 03:51 PM EDT / 2020.03.29 1951 UTC
Wind: from the W (260 degrees) at 22 MPH (19 KT) gusting to 38 MPH (33 KT):0
Visibility: 10 mile(s):0
Sky conditions: mostly cloudy
Precipitation last hour: A trace
Temperature: 54.0 F (12.2 C)
Dew Point: 41.0 F (5.0 C)
Relative Humidity: 61%
Pressure (altimeter): 29.65 in. Hg (1004 hPa)
Pressure tendency: rising rapidly
ob: KERI 291951Z 26019G33KT 10SM SCT070 BKN090 BKN110 12/05 A2965 RMK AO2 PK WND 25033/1946 RAB22E51 PRESRR SLP042 P0000 T01220050
cycle: 20

Station Type Date Time Source
KERI TAF 2020/03/29 18:42 UTC NOAA

TAF KERI 291741Z 2918/3018 23018G32KT P6SM VCSH BKN045
TEMPO 2918/2919 5SM -SHRA BKN035
FM300100 24015G25KT P6SM BKN020
FM301000 24017G25KT P6SM OVC015

Example: see airport list